createdAt,value
2022-09-17T00:00:28.753Z,86.32
2022-09-17T00:05:30.154Z,85.83
2022-09-17T00:10:31.881Z,85.43
2022-09-17T00:15:33.284Z,85.83
2022-09-17T00:20:45.878Z,86.92
2022-09-17T00:25:47.239Z,86.25
2022-09-17T00:30:48.633Z,86.97
2022-09-17T00:36:01.011Z,86.37
2022-09-17T00:41:03.576Z,86.92
2022-09-17T00:46:16.211Z,87.17
2022-09-17T00:51:22.663Z,86.75
2022-09-17T00:56:28.599Z,87.15
2022-09-17T01:01:31.700Z,87.01
2022-09-17T01:06:42.579Z,87.38
2022-09-17T01:12:11.506Z,86.94
2022-09-17T01:17:47.443Z,86.95
2022-09-17T01:23:25.960Z,88.40
2022-09-17T01:28:33.441Z,87.63
2022-09-17T01:33:56.474Z,87.69
2022-09-17T01:39:26.920Z,87.49
2022-09-17T01:45:15.691Z,88.22
2022-09-17T01:50:23.282Z,88.63
2022-09-17T01:55:29.703Z,88.25
2022-09-17T02:00:31.404Z,88.54
2022-09-17T02:06:03.081Z,88.18
2022-09-17T02:11:11.839Z,88.13
2022-09-17T02:16:23.325Z,88.55
2022-09-17T02:21:27.743Z,89.14
2022-09-17T02:26:29.807Z,88.76
2022-09-17T02:31:31.295Z,88.76
2022-09-17T02:36:34.447Z,88.21
2022-09-17T02:48:35.898Z,88.77
2022-09-17T02:53:47.189Z,88.67
2022-09-17T02:59:01.946Z,88.88
2022-09-17T03:04:07.094Z,89.04
2022-09-17T03:09:08.484Z,88.77
2022-09-17T03:14:09.838Z,89.55
2022-09-17T03:19:11.287Z,88.71
2022-09-17T03:24:12.911Z,89.13
2022-09-17T03:29:14.245Z,89.00
2022-09-17T03:34:15.548Z,89.26
2022-09-17T03:39:16.905Z,88.96
2022-09-17T03:44:22.883Z,88.76
2022-09-17T03:49:24.229Z,89.05
2022-09-17T03:54:25.775Z,88.71
2022-09-17T03:59:27.315Z,88.81
2022-09-17T04:04:28.560Z,88.78
2022-09-17T04:09:30.034Z,88.52
2022-09-17T04:14:31.427Z,88.79
2022-09-17T04:19:32.733Z,88.92
2022-09-17T04:24:34.057Z,89.83
2022-09-17T04:29:35.407Z,89.29
2022-09-17T04:34:36.889Z,89.36
2022-09-17T04:39:38.133Z,90.38
2022-09-17T04:44:39.514Z,89.61
2022-09-17T04:49:40.896Z,89.77
2022-09-17T04:54:42.266Z,90.47
2022-09-17T04:59:43.602Z,89.68
2022-09-17T05:04:44.946Z,89.38
2022-09-17T05:09:46.361Z,90.16
2022-09-17T05:14:47.702Z,89.67
2022-09-17T05:19:49.170Z,90.28
2022-09-17T05:24:50.442Z,90.40
2022-09-17T05:29:52.054Z,89.77
2022-09-17T05:34:53.765Z,89.98
2022-09-17T05:39:55.250Z,90.45
2022-09-17T05:44:56.499Z,90.21
2022-09-17T05:49:57.893Z,89.74
2022-09-17T05:54:59.254Z,90.23
2022-09-17T06:00:00.807Z,90.04
2022-09-17T06:05:03.700Z,90.06
2022-09-17T06:10:06.929Z,89.60
2022-09-17T06:15:08.737Z,90.19
2022-09-17T06:20:10.200Z,89.88
2022-09-17T06:25:12.117Z,90.29
2022-09-17T06:30:13.425Z,90.45
2022-09-17T06:35:14.814Z,90.04
2022-09-17T06:40:16.374Z,90.40
2022-09-17T06:45:17.649Z,90.20
2022-09-17T06:50:19.552Z,89.75
2022-09-17T06:55:21.230Z,90.13
2022-09-17T07:00:23.647Z,90.36
2022-09-17T07:05:26.417Z,90.30
2022-09-17T07:10:27.750Z,90.39
2022-09-17T07:15:29.272Z,89.91
2022-09-17T07:20:30.532Z,90.09
2022-09-17T07:25:31.901Z,89.92
2022-09-17T07:30:33.217Z,89.38
2022-09-17T07:35:34.569Z,89.03
2022-09-17T07:40:36.041Z,89.23
2022-09-17T07:45:37.850Z,88.74
2022-09-17T07:50:39.217Z,88.27
2022-09-17T07:55:40.919Z,87.68
2022-09-17T08:00:43.130Z,87.51
2022-09-17T08:05:44.677Z,87.29
2022-09-17T08:10:46.104Z,87.18
2022-09-17T08:15:47.387Z,86.85
2022-09-17T08:20:48.950Z,86.19
2022-09-17T08:25:58.274Z,86.04
2022-09-17T08:31:08.227Z,85.20
2022-09-17T08:36:12.467Z,84.77
2022-09-17T08:41:26.547Z,83.45
2022-09-17T08:46:31.748Z,80.80
2022-09-17T08:51:45.385Z,81.02
2022-09-17T08:56:56.505Z,81.32
2022-09-17T09:02:24.161Z,80.94
2022-09-17T09:07:31.358Z,80.22
2022-09-17T09:12:37.294Z,79.94
2022-09-17T09:17:44.046Z,79.59
2022-09-17T09:22:51.134Z,78.36
2022-09-17T09:28:06.085Z,76.89
2022-09-17T09:33:15.202Z,77.95
2022-09-17T09:38:32.609Z,77.01
2022-09-17T09:44:02.691Z,76.87
2022-09-17T09:49:15.353Z,77.89
2022-09-17T09:54:40.481Z,76.72
2022-09-17T09:59:41.813Z,76.95
2022-09-17T10:04:43.118Z,75.94
2022-09-17T10:09:46.287Z,77.04
2022-09-17T10:14:47.678Z,75.59
2022-09-17T10:20:11.982Z,76.73
2022-09-17T10:25:30.155Z,78.56
2022-09-17T10:30:32.434Z,79.96
2022-09-17T10:35:33.927Z,79.51
2022-09-17T10:40:35.369Z,79.51
2022-09-17T10:45:40.778Z,78.98
2022-09-17T10:50:49.286Z,80.12
2022-09-17T10:56:14.670Z,81.13
2022-09-17T11:01:24.708Z,81.12
2022-09-17T11:06:34.973Z,85.25
2022-09-17T11:11:47.064Z,83.24
2022-09-17T11:17:03.778Z,84.95
2022-09-17T11:22:28.824Z,84.10
2022-09-17T11:27:47.647Z,83.92
2022-09-17T11:33:07.523Z,83.81
2022-09-17T11:38:11.614Z,84.62
2022-09-17T11:43:21.927Z,84.46
2022-09-17T11:48:37.277Z,84.49
2022-09-17T11:53:47.528Z,85.56
2022-09-17T11:58:56.266Z,86.68
2022-09-17T12:04:13.740Z,87.48
2022-09-17T12:09:23.539Z,87.56
2022-09-17T12:14:29.803Z,87.51
2022-09-17T12:19:36.661Z,88.07
2022-09-17T12:24:38.907Z,88.75
2022-09-17T12:30:00.591Z,88.98
2022-09-17T12:35:17.326Z,89.24
2022-09-17T12:40:59.703Z,88.38
2022-09-17T12:46:26.809Z,89.05
2022-09-17T12:51:59.130Z,87.80
2022-09-17T12:57:20.423Z,88.18
2022-09-17T13:02:30.259Z,87.63
2022-09-17T13:07:31.526Z,86.61
2022-09-17T13:12:56.210Z,86.14
2022-09-17T13:18:27.257Z,86.39
2022-09-17T13:23:34.073Z,86.51
2022-09-17T13:28:47.723Z,85.81
2022-09-17T13:33:56.524Z,86.16
2022-09-17T13:38:57.999Z,85.67
2022-09-17T13:44:00.585Z,85.97
2022-09-17T13:49:14.048Z,86.05
2022-09-17T13:54:17.725Z,86.79
2022-09-17T13:59:27.320Z,87.17
2022-09-17T14:04:48.429Z,87.76
2022-09-17T14:09:58.479Z,87.73
2022-09-17T14:14:59.820Z,87.54
2022-09-17T14:20:05.500Z,89.43
2022-09-17T14:25:16.432Z,87.69
2022-09-17T14:30:22.850Z,87.68
2022-09-17T14:35:33.976Z,87.82
2022-09-17T14:40:35.762Z,88.32
2022-09-17T14:45:42.260Z,87.22
2022-09-17T14:50:43.595Z,82.94
2022-09-17T14:55:48.124Z,81.57
2022-09-17T15:00:52.691Z,81.71
2022-09-17T15:05:54.547Z,81.96
2022-09-17T15:11:07.403Z,80.65
2022-09-17T15:16:18.276Z,80.70
2022-09-17T15:21:40.103Z,79.40
2022-09-17T15:26:43.639Z,80.08
2022-09-17T15:31:45.084Z,79.14
2022-09-17T15:37:16.134Z,78.41
2022-09-17T15:42:26.249Z,83.91
2022-09-17T15:47:54.678Z,83.96
2022-09-17T15:53:08.308Z,86.62
2022-09-17T15:58:28.745Z,85.69
2022-09-17T16:03:39.323Z,86.34
2022-09-17T16:08:42.362Z,86.72
2022-09-17T16:13:46.960Z,85.78
2022-09-17T16:18:48.976Z,85.86
2022-09-17T16:23:50.740Z,86.54
2022-09-17T16:28:54.688Z,86.56
2022-09-17T16:33:57.111Z,86.76
2022-09-17T16:38:59.543Z,86.73
2022-09-17T16:44:01.293Z,87.30
2022-09-17T16:49:02.872Z,87.11
2022-09-17T16:54:04.736Z,86.79
2022-09-17T16:59:06.242Z,87.00
2022-09-17T17:04:07.611Z,86.77
2022-09-17T17:09:11.801Z,86.61
2022-09-17T17:14:14.922Z,87.27
2022-09-17T17:19:17.969Z,87.18
2022-09-17T17:24:19.386Z,87.58
2022-09-17T17:29:20.720Z,87.03
2022-09-17T17:34:22.462Z,86.95
2022-09-17T17:39:23.804Z,86.94
2022-09-17T17:44:25.145Z,87.08
2022-09-17T17:49:26.520Z,86.68
2022-09-17T17:54:28.910Z,86.92
2022-09-17T17:59:30.221Z,87.41
2022-09-17T18:04:31.586Z,86.76
2022-09-17T18:09:33.975Z,87.34
2022-09-17T18:14:35.336Z,86.82
2022-09-17T18:19:36.686Z,87.53
2022-09-17T18:24:38.036Z,87.23
2022-09-17T18:29:39.780Z,87.35
2022-09-17T18:34:41.554Z,86.66
2022-09-17T18:39:59.384Z,87.21
2022-09-17T18:45:01.065Z,87.21
2022-09-17T18:50:02.396Z,86.84
2022-09-17T18:55:03.969Z,86.96
2022-09-17T19:00:08.132Z,86.19
2022-09-17T19:05:09.642Z,86.13
2022-09-17T19:10:11.054Z,86.12
2022-09-17T19:15:12.584Z,86.46
2022-09-17T19:20:14.220Z,86.43
2022-09-17T19:25:15.891Z,86.56
2022-09-17T19:30:17.346Z,86.33
2022-09-17T19:35:18.602Z,86.20
2022-09-17T19:40:20.179Z,86.41
2022-09-17T19:45:23.024Z,86.46
2022-09-17T19:50:24.416Z,86.97
2022-09-17T19:55:25.685Z,86.78
2022-09-17T20:00:27.246Z,86.99
2022-09-17T20:05:31.735Z,87.15
2022-09-17T20:10:37.252Z,86.46
2022-09-17T20:15:38.707Z,86.52
2022-09-17T20:20:40.866Z,86.34
2022-09-17T20:25:42.450Z,86.88
2022-09-17T20:30:45.141Z,86.77
2022-09-17T20:35:46.612Z,87.35
2022-09-17T20:40:50.293Z,87.26
2022-09-17T20:45:55.498Z,87.28
2022-09-17T20:51:03.965Z,87.61
2022-09-17T20:56:07.745Z,87.24
2022-09-17T21:01:20.434Z,88.06
2022-09-17T21:06:24.008Z,88.41
2022-09-17T21:11:26.034Z,88.48
2022-09-17T21:16:28.677Z,88.49
2022-09-17T21:21:34.144Z,89.28
2022-09-17T21:26:35.721Z,89.20
2022-09-17T21:31:37.971Z,90.08
2022-09-17T21:36:41.265Z,89.35
2022-09-17T21:41:44.210Z,89.44
2022-09-17T21:46:45.600Z,89.64
2022-09-17T21:51:47.045Z,89.80
2022-09-17T21:56:48.430Z,89.93
2022-09-17T22:01:50.695Z,90.15
2022-09-17T22:06:53.088Z,89.68
2022-09-17T22:11:54.760Z,89.59
2022-09-17T22:16:57.109Z,90.14
2022-09-17T22:21:58.665Z,89.62
2022-09-17T22:26:59.985Z,90.50
2022-09-17T22:32:01.531Z,90.93
2022-09-17T22:37:03.523Z,90.40
2022-09-17T22:42:05.184Z,90.42
2022-09-17T22:47:06.681Z,90.45
2022-09-17T22:52:08.289Z,91.23
2022-09-17T22:57:09.626Z,90.08
2022-09-17T23:02:11.001Z,91.22
2022-09-17T23:07:12.255Z,90.67
2022-09-17T23:12:13.610Z,90.99
2022-09-17T23:17:14.989Z,90.85
2022-09-17T23:22:16.367Z,90.60
2022-09-17T23:27:17.723Z,90.54
2022-09-17T23:32:19.077Z,91.31
2022-09-17T23:37:22.389Z,91.10
2022-09-17T23:42:23.737Z,91.76
2022-09-17T23:47:25.057Z,91.52
2022-09-17T23:52:26.391Z,91.80
2022-09-17T23:57:28.846Z,92.34
